Time;durP1;ratioP1;P1;durP2;ratioP2;P2;SDS_P1;SDS_P2;PMS_P1;PMS_P2;Temp;Humidity;BMP_temperature;BMP_pressure;BME280_temperature;BME280_humidity;BME280_pressure;Samples;Min_cycle;Max_cycle;Signal;HPM_P1;HPM_P2
2022/10/23 00:01:27;;;;;;;11.60;7.50;;;11.20;99.90;;;;;;5054003;28;20049;-81
2022/10/23 00:03:59;;;;;;;12.15;6.65;;;11.20;99.90;;;;;;5055150;28;20045;-80
2022/10/23 00:06:26;;;;;;;9.18;6.35;;;11.20;99.90;;;;;;5055725;28;20065;-81
2022/10/23 00:08:52;;;;;;;7.32;5.15;;;11.20;99.90;;;;;;5055189;28;20048;-81
2022/10/23 00:11:23;;;;;;;6.07;4.40;;;11.10;99.90;;;;;;5055143;28;20052;-81
2022/10/23 00:13:50;;;;;;;8.27;6.20;;;11.10;99.90;;;;;;5071035;28;20053;-81
2022/10/23 00:16:15;;;;;;;10.80;6.18;;;11.10;99.90;;;;;;5055137;28;20049;-81
2022/10/23 00:18:41;;;;;;;12.60;6.68;;;11.00;99.90;;;;;;5055715;28;20044;-82
2022/10/23 00:21:09;;;;;;;15.70;6.57;;;11.00;99.90;;;;;;5054958;28;20474;-81
2022/10/23 00:23:35;;;;;;;11.15;7.45;;;10.90;99.90;;;;;;5055559;28;20050;-81
2022/10/23 00:26:02;;;;;;;8.00;5.97;;;10.90;99.90;;;;;;5054816;28;20475;-81
2022/10/23 00:28:27;;;;;;;12.50;6.75;;;10.90;99.90;;;;;;5053822;28;20076;-81
2022/10/23 00:30:53;;;;;;;6.90;5.55;;;10.90;99.90;;;;;;5087763;28;20511;-81
2022/10/23 00:33:19;;;;;;;9.93;6.20;;;10.90;99.90;;;;;;5054727;28;20045;-81
2022/10/23 00:35:45;;;;;;;10.18;7.88;;;10.90;99.90;;;;;;5053618;28;20083;-81
2022/10/23 00:38:10;;;;;;;13.20;7.40;;;10.80;99.90;;;;;;5054883;28;20087;-81
2022/10/23 00:40:37;;;;;;;8.80;5.72;;;10.80;99.90;;;;;;5053762;28;20574;-81
2022/10/23 00:43:03;;;;;;;8.60;6.60;;;10.80;99.90;;;;;;5054472;28;20079;-81
2022/10/23 00:45:32;;;;;;;10.52;7.38;;;10.70;99.90;;;;;;5054643;28;20059;-81
2022/10/23 00:48:00;;;;;;;7.78;6.68;;;10.80;99.90;;;;;;5054249;28;20080;-81
2022/10/23 00:50:28;;;;;;;8.38;6.90;;;10.70;99.90;;;;;;5054392;28;20045;-81
2022/10/23 00:52:56;;;;;;;8.75;5.68;;;10.60;99.90;;;;;;5054926;28;20064;-81
2022/10/23 00:55:23;;;;;;;9.35;7.05;;;10.70;99.90;;;;;;5054444;28;20124;-81
2022/10/23 00:57:50;;;;;;;6.28;5.60;;;10.60;99.90;;;;;;5053974;28;20068;-81
2022/10/23 01:00:22;;;;;;;9.70;5.90;;;10.60;99.90;;;;;;5054349;28;20052;-81
2022/10/23 01:02:48;;;;;;;11.60;8.30;;;10.60;99.90;;;;;;5054300;28;20114;-81
2022/10/23 01:05:14;;;;;;;8.35;6.78;;;10.60;99.90;;;;;;5054263;28;20118;-81
2022/10/23 01:07:51;;;;;;;12.05;6.75;;;10.60;99.90;;;;;;5054213;28;20379;-81
2022/10/23 01:10:40;;;;;;;13.07;7.85;;;10.60;99.90;;;;;;5054251;28;20055;-81
2022/10/23 01:13:31;;;;;;;10.60;7.63;;;10.60;99.90;;;;;;5054493;28;20144;-81
2022/10/23 01:16:21;;;;;;;8.90;8.02;;;10.50;99.90;;;;;;5053908;28;20132;-81
2022/10/23 01:19:03;;;;;;;8.18;5.93;;;10.50;99.90;;;;;;5055369;28;20609;-81
2022/10/23 01:21:35;;;;;;;8.18;6.80;;;10.50;99.90;;;;;;5056250;28;20148;-81
2022/10/23 01:24:38;;;;;;;7.25;6.30;;;10.50;99.90;;;;;;5056094;28;20056;-81
2022/10/23 01:27:17;;;;;;;6.97;6.22;;;10.60;99.90;;;;;;5055694;28;20062;-81
2022/10/23 01:30:01;;;;;;;10.18;6.65;;;10.50;99.90;;;;;;5055590;28;20075;-81
2022/10/23 01:32:39;;;;;;;15.20;7.70;;;10.50;99.90;;;;;;5055471;28;20053;-81
2022/10/23 01:35:12;;;;;;;129.50;17.73;;;10.40;99.90;;;;;;5054790;28;20104;-81
2022/10/23 01:37:44;;;;;;;189.77;22.15;;;10.40;99.90;;;;;;5053841;28;20083;-81
2022/10/23 01:40:23;;;;;;;21.13;7.20;;;10.30;99.90;;;;;;5053802;28;20117;-81
2022/10/23 01:42:55;;;;;;;20.40;6.22;;;10.30;99.90;;;;;;5053782;28;20397;-81
2022/10/23 01:45:31;;;;;;;26.05;7.95;;;10.30;99.90;;;;;;5053129;28;20056;-81
2022/10/23 01:48:00;;;;;;;15.32;6.65;;;10.30;99.90;;;;;;5053955;28;20044;-81
2022/10/23 01:50:29;;;;;;;5.72;5.22;;;10.30;99.90;;;;;;5053717;28;20084;-81
2022/10/23 01:52:54;;;;;;;55.78;10.52;;;10.30;99.90;;;;;;5055636;28;20459;-81
2022/10/23 01:55:22;;;;;;;44.45;9.70;;;10.20;99.90;;;;;;5056714;28;20056;-81
2022/10/23 01:57:49;;;;;;;49.17;10.68;;;10.20;99.90;;;;;;5055907;28;20045;-81
2022/10/23 02:00:17;;;;;;;9.10;6.15;;;10.20;99.90;;;;;;5053902;28;20080;-81
2022/10/23 02:02:46;;;;;;;6.97;6.10;;;10.20;99.90;;;;;;5053232;28;20099;-81
2022/10/23 02:05:17;;;;;;;13.52;7.28;;;10.20;99.90;;;;;;5053167;28;20092;-81
2022/10/23 02:07:43;;;;;;;5.80;5.20;;;10.20;99.90;;;;;;5085563;28;20483;-81
2022/10/23 02:10:11;;;;;;;13.48;6.88;;;10.20;99.90;;;;;;5053622;28;20045;-81
2022/10/23 02:13:01;;;;;;;55.70;11.70;;;10.20;99.90;;;;;;5053711;28;20051;-81
2022/10/23 02:15:40;;;;;;;24.50;8.63;;;10.20;99.90;;;;;;5053631;28;20048;-81
2022/10/23 02:18:33;;;;;;;26.55;8.80;;;10.20;99.90;;;;;;5053183;28;20037;-81
2022/10/23 02:21:39;;;;;;;25.48;8.95;;;10.30;99.90;;;;;;5053092;28;20049;-81
2022/10/23 02:24:09;;;;;;;73.13;13.95;;;10.30;99.90;;;;;;5052351;28;20049;-81
2022/10/23 02:26:54;;;;;;;49.00;10.63;;;10.30;99.90;;;;;;5053200;28;20128;-81
2022/10/23 02:30:03;;;;;;;126.18;19.88;;;10.30;99.90;;;;;;5052923;28;20048;-81
2022/10/23 02:32:29;;;;;;;106.00;16.58;;;10.20;99.90;;;;;;4991252;28;20053;-81
2022/10/23 02:34:55;;;;;;;110.55;15.65;;;10.20;99.90;;;;;;4991147;28;20524;-81
2022/10/23 02:37:21;;;;;;;57.47;11.65;;;10.30;99.90;;;;;;5019774;28;20079;-81
2022/10/23 02:39:48;;;;;;;50.10;9.38;;;10.30;99.90;;;;;;5052515;28;20420;-81
2022/10/23 02:42:29;;;;;;;68.30;12.18;;;10.20;99.90;;;;;;5052654;28;20053;-81
2022/10/23 02:45:06;;;;;;;63.45;12.43;;;10.30;99.90;;;;;;5052900;28;20044;-81
2022/10/23 02:47:47;;;;;;;28.88;8.40;;;10.20;99.90;;;;;;5052454;28;20095;-81
2022/10/23 02:50:18;;;;;;;32.53;8.57;;;10.20;99.90;;;;;;5052903;28;20045;-81
2022/10/23 02:53:29;;;;;;;23.48;8.68;;;10.10;99.90;;;;;;5052933;28;20443;-81
2022/10/23 02:56:28;;;;;;;39.55;9.20;;;10.10;99.90;;;;;;5023965;28;20053;-81
2022/10/23 02:59:14;;;;;;;15.60;8.55;;;10.10;99.90;;;;;;5068036;28;20049;-81
2022/10/23 03:01:59;;;;;;;44.20;12.75;;;10.20;99.90;;;;;;5052186;28;20072;-81
2022/10/23 03:04:27;;;;;;;16.60;8.52;;;10.20;99.90;;;;;;5055938;28;20077;-81
2022/10/23 03:06:53;;;;;;;11.52;9.52;;;10.10;99.90;;;;;;5058768;28;20471;-81
2022/10/23 03:09:18;;;;;;;25.17;8.90;;;10.20;99.90;;;;;;5059159;28;20439;-81
2022/10/23 03:11:44;;;;;;;85.68;16.35;;;10.20;99.90;;;;;;5058833;28;20063;-81
2022/10/23 03:14:12;;;;;;;9.52;8.25;;;10.10;99.90;;;;;;5059111;28;20051;-81
2022/10/23 03:16:38;;;;;;;80.70;17.20;;;10.10;99.90;;;;;;5058466;28;20479;-81
2022/10/23 03:19:03;;;;;;;16.55;9.18;;;10.20;99.90;;;;;;5059134;28;20128;-81
2022/10/23 03:21:29;;;;;;;10.20;7.80;;;10.20;99.90;;;;;;5058923;28;20045;-81
2022/10/23 03:23:55;;;;;;;13.38;8.20;;;10.20;99.90;;;;;;5059408;28;20049;-81
2022/10/23 03:26:21;;;;;;;14.00;8.30;;;10.20;99.90;;;;;;5059212;28;20052;-81
2022/10/23 03:28:47;;;;;;;23.67;9.90;;;10.30;99.90;;;;;;5058688;28;20439;-81
2022/10/23 03:31:12;;;;;;;37.63;12.30;;;10.30;99.90;;;;;;5058768;28;20084;-81
2022/10/23 03:33:38;;;;;;;12.65;8.70;;;10.30;99.90;;;;;;5058691;28;20047;-81
2022/10/23 03:36:04;;;;;;;11.95;9.38;;;10.30;99.90;;;;;;5058790;28;20120;-81
2022/10/23 03:38:30;;;;;;;14.00;9.00;;;10.30;99.90;;;;;;5058643;28;20045;-81
2022/10/23 03:40:56;;;;;;;10.30;8.98;;;10.30;99.90;;;;;;5059637;28;20068;-81
2022/10/23 03:43:21;;;;;;;12.43;9.85;;;10.30;99.90;;;;;;5091503;28;20049;-81
2022/10/23 03:45:47;;;;;;;14.40;9.27;;;10.30;99.90;;;;;;5058637;28;20479;-80
2022/10/23 03:48:13;;;;;;;16.02;9.00;;;10.30;99.90;;;;;;5058463;28;20045;-80
2022/10/23 03:50:39;;;;;;;10.95;7.60;;;10.30;99.90;;;;;;5058972;28;20053;-81
2022/10/23 03:53:05;;;;;;;7.88;7.10;;;10.30;99.90;;;;;;5058836;28;20048;-81
2022/10/23 03:55:31;;;;;;;7.78;6.50;;;10.30;99.90;;;;;;5058638;28;20040;-81
2022/10/23 03:57:57;;;;;;;10.18;9.10;;;10.30;99.90;;;;;;5058542;28;20055;-81
2022/10/23 04:00:22;;;;;;;9.27;8.00;;;10.30;99.90;;;;;;5058559;28;20045;-81
2022/10/23 04:02:48;;;;;;;9.32;7.75;;;10.30;99.90;;;;;;5057279;28;20044;-81
2022/10/23 04:05:14;;;;;;;10.18;6.35;;;10.30;99.90;;;;;;5058225;28;20079;-81
2022/10/23 04:07:40;;;;;;;8.88;7.78;;;10.30;99.90;;;;;;5058653;28;20045;-81
2022/10/23 04:10:06;;;;;;;11.30;8.88;;;10.30;99.90;;;;;;5058420;28;20057;-81
2022/10/23 04:12:32;;;;;;;10.80;8.85;;;10.30;99.90;;;;;;5058323;28;20091;-80
2022/10/23 04:14:58;;;;;;;12.80;8.52;;;10.30;99.90;;;;;;5057780;28;20094;-81
2022/10/23 04:17:23;;;;;;;13.20;11.13;;;10.30;99.90;;;;;;5055201;28;20049;-81
2022/10/23 04:19:49;;;;;;;12.38;9.20;;;10.40;99.90;;;;;;5055083;28;20093;-81
2022/10/23 04:22:15;;;;;;;12.45;9.85;;;10.30;99.90;;;;;;5055469;28;20049;-81
2022/10/23 04:24:45;;;;;;;12.88;9.80;;;10.40;99.90;;;;;;5055193;28;20047;-81
2022/10/23 04:27:12;;;;;;;10.93;9.73;;;10.30;99.90;;;;;;5055383;28;20123;-80
2022/10/23 04:29:37;;;;;;;11.63;8.73;;;10.40;99.90;;;;;;5055022;28;20049;-81
2022/10/23 04:32:03;;;;;;;18.42;11.80;;;10.30;99.90;;;;;;5055266;28;20086;-81
2022/10/23 04:34:29;;;;;;;10.80;8.90;;;10.30;99.90;;;;;;5054090;28;20044;-80
2022/10/23 04:36:54;;;;;;;17.38;11.45;;;10.40;99.90;;;;;;5054966;28;20124;-81
2022/10/23 04:39:20;;;;;;;20.98;11.13;;;10.30;99.90;;;;;;5055164;28;20370;-81
2022/10/23 04:41:46;;;;;;;13.40;9.52;;;10.30;99.90;;;;;;5053705;28;20041;-81
2022/10/23 04:44:12;;;;;;;33.65;11.52;;;10.30;99.90;;;;;;5054789;28;20045;-81
2022/10/23 04:46:38;;;;;;;8.45;6.30;;;10.30;99.90;;;;;;5055240;28;20435;-81
2022/10/23 04:49:03;;;;;;;18.17;9.60;;;10.30;99.90;;;;;;5055183;28;20439;-81
2022/10/23 04:51:29;;;;;;;10.98;7.93;;;10.30;99.90;;;;;;5057303;28;20055;-81
2022/10/23 04:53:55;;;;;;;10.02;7.75;;;10.20;99.90;;;;;;5057551;28;20131;-81
2022/10/23 04:56:20;;;;;;;11.10;7.30;;;10.30;99.90;;;;;;5055238;28;20103;-81
2022/10/23 04:58:46;;;;;;;13.93;9.55;;;10.30;99.90;;;;;;5053082;28;20040;-81
2022/10/23 05:01:12;;;;;;;10.40;7.75;;;10.30;99.90;;;;;;5054510;28;20051;-81
2022/10/23 05:03:38;;;;;;;10.40;7.88;;;10.30;99.90;;;;;;5054497;28;20384;-81
2022/10/23 05:06:04;;;;;;;11.35;9.25;;;10.20;99.90;;;;;;5054971;28;20453;-81
2022/10/23 05:08:30;;;;;;;11.82;8.15;;;10.20;99.90;;;;;;5054367;28;20057;-81
2022/10/23 05:10:56;;;;;;;10.63;7.65;;;10.30;99.90;;;;;;5052948;28;20049;-81
2022/10/23 05:13:22;;;;;;;9.43;7.95;;;10.30;99.90;;;;;;5054722;28;20463;-81
2022/10/23 05:15:50;;;;;;;8.95;6.60;;;10.30;99.90;;;;;;5054475;28;20059;-81
2022/10/23 05:18:27;;;;;;;10.32;9.18;;;10.20;99.90;;;;;;5054594;28;20048;-81
2022/10/23 05:21:00;;;;;;;12.35;9.23;;;10.20;99.90;;;;;;5054536;28;20045;-81
2022/10/23 05:23:28;;;;;;;10.55;8.82;;;10.30;99.90;;;;;;5054371;28;20128;-81
2022/10/23 05:25:54;;;;;;;12.30;10.45;;;10.30;99.90;;;;;;5053896;28;20052;-81
2022/10/23 05:28:20;;;;;;;11.68;8.15;;;10.30;99.90;;;;;;5053298;28;20049;-81
2022/10/23 05:30:46;;;;;;;12.07;9.88;;;10.30;99.90;;;;;;5054265;28;20053;-81
2022/10/23 05:33:12;;;;;;;17.20;10.07;;;10.30;99.90;;;;;;5053660;28;20045;-81
2022/10/23 05:35:40;;;;;;;14.52;9.90;;;10.30;99.90;;;;;;5053802;28;20045;-81
2022/10/23 05:38:06;;;;;;;10.43;8.45;;;10.30;99.90;;;;;;5053562;28;20045;-81
2022/10/23 05:40:32;;;;;;;13.90;9.98;;;10.30;99.90;;;;;;5053578;28;20049;-81
2022/10/23 05:42:58;;;;;;;15.35;9.73;;;10.30;99.90;;;;;;5053522;28;20049;-81
2022/10/23 05:45:23;;;;;;;14.32;11.40;;;10.20;99.90;;;;;;5054108;28;20041;-81
2022/10/23 05:47:49;;;;;;;15.68;9.57;;;10.30;99.90;;;;;;5053373;28;20088;-81
2022/10/23 05:50:15;;;;;;;12.65;9.70;;;10.20;99.90;;;;;;5053532;28;20045;-81
2022/10/23 05:52:41;;;;;;;12.45;8.20;;;10.30;99.90;;;;;;5085959;28;20041;-81
2022/10/23 05:55:07;;;;;;;12.95;9.20;;;10.30;99.90;;;;;;5053576;28;20063;-81
2022/10/23 05:57:32;;;;;;;10.55;9.00;;;10.30;99.90;;;;;;5053392;28;20045;-81
2022/10/23 05:59:58;;;;;;;15.30;9.88;;;10.20;99.90;;;;;;5053070;28;20433;-81
2022/10/23 06:02:24;;;;;;;12.32;9.27;;;10.20;99.90;;;;;;5053303;28;20080;-81
2022/10/23 06:04:50;;;;;;;11.45;7.65;;;10.10;99.90;;;;;;5052721;28;20454;-81
2022/10/23 06:07:15;;;;;;;9.77;8.77;;;10.10;99.90;;;;;;5052787;28;20053;-81
2022/10/23 06:09:41;;;;;;;18.10;9.60;;;10.10;99.90;;;;;;5052741;28;20126;-81
2022/10/23 06:12:07;;;;;;;14.82;10.23;;;10.10;99.90;;;;;;5052978;28;20084;-81
2022/10/23 06:14:32;;;;;;;14.77;9.80;;;10.10;99.90;;;;;;5052811;28;20140;-81
2022/10/23 06:16:58;;;;;;;13.10;10.65;;;10.20;99.90;;;;;;5052989;28;20037;-81
2022/10/23 06:19:24;;;;;;;13.75;10.73;;;10.20;99.90;;;;;;5053067;28;20041;-81
2022/10/23 06:21:49;;;;;;;12.23;9.93;;;10.10;99.90;;;;;;5052458;28;20522;-81
2022/10/23 06:24:15;;;;;;;17.05;11.48;;;10.20;99.90;;;;;;5052508;28;20044;-81
2022/10/23 06:26:41;;;;;;;12.30;9.50;;;10.20;99.90;;;;;;5052382;28;20048;-81
2022/10/23 06:29:06;;;;;;;18.33;11.77;;;10.20;99.90;;;;;;5052132;28;20055;-81
2022/10/23 06:31:32;;;;;;;16.15;9.82;;;10.20;99.90;;;;;;5052427;28;20067;-81
2022/10/23 06:33:58;;;;;;;12.68;9.27;;;10.20;99.90;;;;;;5051422;28;20106;-81
2022/10/23 06:36:25;;;;;;;12.88;9.75;;;10.20;99.90;;;;;;5052810;28;20049;-81
2022/10/23 06:38:51;;;;;;;12.77;10.27;;;10.20;99.90;;;;;;5051746;28;20045;-81
2022/10/23 06:41:19;;;;;;;14.60;10.70;;;10.30;99.90;;;;;;5052681;28;20423;-80
2022/10/23 06:43:49;;;;;;;17.10;11.02;;;10.30;99.90;;;;;;5052068;28;20087;-81
2022/10/23 06:46:16;;;;;;;14.52;10.68;;;10.30;99.90;;;;;;5051314;28;20051;-81
2022/10/23 06:48:41;;;;;;;12.77;11.48;;;10.40;99.90;;;;;;5052407;28;20052;-81
2022/10/23 06:51:10;;;;;;;13.45;10.75;;;10.40;99.90;;;;;;5052481;28;20045;-81
2022/10/23 06:53:36;;;;;;;20.85;10.77;;;10.40;99.90;;;;;;5052862;28;20102;-81
2022/10/23 06:56:03;;;;;;;17.10;12.40;;;10.50;99.90;;;;;;5052203;28;20048;-81
2022/10/23 06:58:29;;;;;;;15.18;12.02;;;10.50;99.90;;;;;;5052250;28;20052;-81
2022/10/23 07:00:55;;;;;;;15.15;10.32;;;10.50;99.90;;;;;;5052426;28;20120;-81
2022/10/23 07:03:20;;;;;;;18.80;10.88;;;10.60;99.90;;;;;;5051875;28;20094;-81
2022/10/23 07:05:46;;;;;;;14.98;10.15;;;10.60;99.90;;;;;;5051925;28;20144;-81
2022/10/23 07:08:13;;;;;;;15.93;10.55;;;10.60;99.90;;;;;;5052181;28;20045;-81
2022/10/23 07:10:42;;;;;;;16.40;12.07;;;10.70;99.90;;;;;;5052918;28;20091;-81
2022/10/23 07:13:09;;;;;;;17.52;11.57;;;10.70;99.90;;;;;;5052004;28;20041;-82
2022/10/23 07:15:35;;;;;;;17.17;11.38;;;10.70;99.90;;;;;;5052176;28;20049;-80
2022/10/23 07:18:01;;;;;;;18.83;10.68;;;10.70;99.90;;;;;;5052302;28;20045;-83
2022/10/23 07:20:27;;;;;;;12.73;9.95;;;10.80;99.90;;;;;;5051479;28;20064;-83
2022/10/23 07:22:53;;;;;;;19.58;10.55;;;10.80;99.90;;;;;;5052314;28;20052;-82
2022/10/23 07:25:23;;;;;;;16.10;11.27;;;10.90;99.90;;;;;;5052121;28;20045;-81
2022/10/23 07:27:49;;;;;;;19.33;10.35;;;10.90;99.90;;;;;;5052649;28;20076;-82
2022/10/23 07:30:15;;;;;;;17.73;9.98;;;10.90;99.90;;;;;;5052127;28;20566;-81
2022/10/23 07:32:42;;;;;;;13.68;10.65;;;10.90;99.90;;;;;;5052202;28;20061;-82
2022/10/23 07:35:09;;;;;;;16.67;10.98;;;11.00;99.90;;;;;;5052130;28;20041;-81
2022/10/23 07:37:35;;;;;;;10.73;9.63;;;11.10;99.90;;;;;;5052285;28;20044;-81
2022/10/23 07:40:01;;;;;;;17.38;10.90;;;11.10;99.90;;;;;;5052083;28;20459;-80
2022/10/23 07:42:26;;;;;;;13.68;10.65;;;11.10;99.90;;;;;;5052491;28;20099;-81
2022/10/23 07:44:52;;;;;;;14.32;10.43;;;11.10;99.90;;;;;;5052296;28;20041;-82
2022/10/23 07:47:18;;;;;;;15.25;10.30;;;11.20;99.90;;;;;;5050876;28;20037;-82
2022/10/23 07:49:43;;;;;;;14.98;10.18;;;11.20;99.90;;;;;;5057710;28;20041;-81
2022/10/23 07:52:10;;;;;;;15.35;10.68;;;11.20;99.90;;;;;;5061939;28;20056;-81
2022/10/23 07:54:35;;;;;;;11.98;10.13;;;11.30;99.90;;;;;;5060700;28;20045;-83
2022/10/23 07:57:01;;;;;;;14.85;10.55;;;11.30;99.90;;;;;;5056258;28;20046;-82
2022/10/23 07:59:27;;;;;;;11.63;8.82;;;11.30;99.90;;;;;;5055574;28;20131;-83
2022/10/23 08:01:55;;;;;;;17.65;10.93;;;11.40;99.90;;;;;;5055828;28;20084;-82
2022/10/23 08:04:22;;;;;;;14.25;9.50;;;11.40;99.90;;;;;;5055358;28;20049;-82
2022/10/23 08:06:47;;;;;;;15.75;9.15;;;11.50;99.90;;;;;;5056140;28;20092;-82
2022/10/23 08:09:13;;;;;;;12.27;8.65;;;11.50;99.90;;;;;;5055453;28;20083;-82
2022/10/23 08:11:39;;;;;;;16.40;10.35;;;11.60;99.90;;;;;;5055353;28;20049;-81
2022/10/23 08:14:07;;;;;;;14.82;9.27;;;11.70;99.90;;;;;;5055641;28;20094;-80
2022/10/23 08:16:34;;;;;;;10.93;8.00;;;11.10;99.90;;;;;;5055241;28;20049;-82
2022/10/23 08:19:01;;;;;;;14.45;10.57;;;11.80;99.90;;;;;;5055009;28;20056;-82
2022/10/23 08:21:27;;;;;;;12.25;8.23;;;11.90;99.90;;;;;;5055166;28;20095;-82
2022/10/23 08:24:01;;;;;;;14.40;10.32;;;11.90;99.90;;;;;;5055167;28;20441;-82
2022/10/23 08:26:30;;;;;;;15.55;9.73;;;12.00;99.90;;;;;;5055333;28;20173;-81
2022/10/23 08:28:59;;;;;;;12.60;8.60;;;12.00;99.90;;;;;;5055035;28;20360;-81
2022/10/23 08:31:25;;;;;;;12.45;8.98;;;12.10;99.90;;;;;;5054886;28;20053;-82
2022/10/23 08:33:51;;;;;;;10.68;8.57;;;12.20;99.90;;;;;;5055161;28;20067;-81
2022/10/23 08:36:22;;;;;;;12.82;10.20;;;12.30;99.90;;;;;;5054916;28;20049;-81
2022/10/23 08:38:48;;;;;;;15.77;9.18;;;12.40;99.90;;;;;;5055346;28;20087;-81
2022/10/23 08:41:32;;;;;;;12.85;9.00;;;12.40;99.90;;;;;;5054814;28;20079;-82
2022/10/23 08:44:03;;;;;;;;;;;12.50;99.90;;;;;;5055361;28;20068;-81
2022/10/23 08:46:34;;;;;;;10.43;7.88;;;12.60;99.90;;;;;;5054679;28;19947;-82
2022/10/23 08:49:24;;;;;;;12.73;8.27;;;12.70;99.90;;;;;;5054439;28;20048;-82
2022/10/23 08:51:53;;;;;;;15.45;8.40;;;12.90;99.90;;;;;;5025067;28;20157;-82
2022/10/23 08:54:19;;;;;;;11.48;7.10;;;12.90;99.90;;;;;;5054066;28;20048;-82
2022/10/23 08:56:52;;;;;;;16.38;8.73;;;13.00;99.90;;;;;;5070221;28;20049;-81
2022/10/23 08:59:38;;;;;;;13.15;8.20;;;13.00;99.90;;;;;;5055093;28;20045;-83
2022/10/23 09:02:07;;;;;;;17.00;8.00;;;13.10;99.90;;;;;;5053459;28;20450;-81
2022/10/23 09:04:33;;;;;;;12.68;8.32;;;13.10;99.90;;;;;;5054424;28;20437;-83
2022/10/23 09:07:21;;;;;;;11.23;7.90;;;13.30;99.90;;;;;;5054504;28;20088;-82
2022/10/23 09:09:55;;;;;;;8.48;6.90;;;13.30;99.90;;;;;;5054296;28;20091;-82
2022/10/23 09:12:24;;;;;;;11.98;7.45;;;13.50;99.90;;;;;;5054750;28;20045;-82
2022/10/23 09:15:14;;;;;;;11.43;7.85;;;13.50;99.90;;;;;;5054213;28;20087;-82
2022/10/23 09:17:42;;;;;;;10.70;7.05;;;13.60;99.90;;;;;;5054174;28;20048;-82
2022/10/23 09:20:20;;;;;;;13.43;7.88;;;13.70;99.90;;;;;;5054295;28;20099;-81
2022/10/23 09:22:47;;;;;;;10.25;7.65;;;13.80;99.90;;;;;;5053903;28;20045;-83
2022/10/23 09:25:23;;;;;;;14.43;8.05;;;13.90;99.90;;;;;;5053946;28;20059;-81
2022/10/23 09:27:56;;;;;;;11.23;7.82;;;14.00;99.90;;;;;;5054228;28;20063;-82
2022/10/23 09:30:42;;;;;;;12.48;7.13;;;14.10;99.90;;;;;;5053907;28;20044;-81
2022/10/23 09:33:16;;;;;;;11.90;7.45;;;14.20;99.90;;;;;;5053097;28;20145;-82
2022/10/23 09:36:07;;;;;;;8.68;6.57;;;14.40;99.90;;;;;;5054029;28;20044;-82
2022/10/23 09:38:46;;;;;;;9.15;7.00;;;14.40;99.90;;;;;;5056588;28;20084;-82
2022/10/23 09:41:35;;;;;;;8.50;6.47;;;14.60;99.90;;;;;;5056192;28;20088;-82
2022/10/23 09:44:07;;;;;;;12.95;7.18;;;14.70;99.90;;;;;;5056186;28;20095;-84
2022/10/23 09:46:41;;;;;;;12.80;6.75;;;14.70;99.90;;;;;;5058594;28;20040;-82
2022/10/23 09:49:18;;;;;;;10.25;6.82;;;14.80;99.90;;;;;;5057853;28;20076;-82
2022/10/23 09:51:51;;;;;;;9.40;5.82;;;14.80;99.90;;;;;;5057343;28;20460;-82
2022/10/23 09:54:18;;;;;;;6.80;5.18;;;14.80;99.90;;;;;;5057433;28;20053;-82
2022/10/23 09:56:47;;;;;;;6.63;5.53;;;14.80;99.90;;;;;;5056476;28;20116;-82
2022/10/23 09:59:13;;;;;;;10.30;5.63;;;14.90;99.90;;;;;;5053415;28;20055;-83
2022/10/23 10:02:00;;;;;;;10.60;6.20;;;14.90;99.90;;;;;;5053022;28;20045;-82
2022/10/23 10:04:36;;;;;;;10.82;5.88;;;14.90;99.90;;;;;;5053421;28;20380;-81
2022/10/23 10:07:06;;;;;;;11.02;6.70;;;15.00;99.90;;;;;;5052994;28;20526;-83
2022/10/23 10:09:31;;;;;;;6.88;4.85;;;15.00;99.90;;;;;;5052912;28;20478;-82
2022/10/23 10:12:14;;;;;;;7.93;4.90;;;15.10;99.90;;;;;;5052863;28;20159;-82
2022/10/23 10:14:52;;;;;;;8.30;5.30;;;15.10;99.90;;;;;;5053163;28;20052;-81
2022/10/23 10:17:30;;;;;;;9.10;5.00;;;15.10;99.90;;;;;;5052749;28;20080;-81
2022/10/23 10:20:05;;;;;;;9.88;5.75;;;15.20;99.90;;;;;;5052915;28;20045;-82
2022/10/23 10:22:36;;;;;;;7.75;5.68;;;15.30;99.90;;;;;;5052747;28;20049;-82
2022/10/23 10:25:41;;;;;;;8.05;4.95;;;15.40;99.90;;;;;;5053154;28;20068;-82
2022/10/23 10:28:12;;;;;;;10.38;5.53;;;15.50;99.90;;;;;;5051409;28;20084;-83
2022/10/23 10:30:41;;;;;;;7.78;4.45;;;15.60;99.90;;;;;;5053339;28;20041;-81
2022/10/23 10:33:17;;;;;;;10.20;5.43;;;15.70;99.90;;;;;;5052562;28;20053;-83
2022/10/23 10:36:14;;;;;;;9.85;5.25;;;15.70;99.90;;;;;;5052508;28;20146;-83
2022/10/23 10:39:03;;;;;;;7.75;5.20;;;15.90;99.90;;;;;;5052987;28;20099;-81
2022/10/23 10:41:38;;;;;;;7.22;4.60;;;16.00;99.90;;;;;;5057423;28;20113;-82
2022/10/23 10:44:38;;;;;;;9.60;5.13;;;16.00;99.90;;;;;;5053080;28;20049;-81
2022/10/23 10:47:32;;;;;;;8.18;4.75;;;16.10;99.90;;;;;;5052357;28;20045;-82
2022/10/23 10:50:18;;;;;;;7.20;4.38;;;16.20;99.90;;;;;;5052729;28;20463;-82
2022/10/23 10:52:57;;;;;;;6.22;4.60;;;16.30;99.90;;;;;;5055787;28;20055;-82
2022/10/23 10:55:37;;;;;;;8.85;5.88;;;16.30;99.90;;;;;;5057909;28;20102;-82
2022/10/23 10:58:44;;;;;;;9.02;4.57;;;16.30;99.90;;;;;;5054793;28;20102;-81
2022/10/23 11:01:37;;;;;;;8.65;5.05;;;16.30;99.90;;;;;;5052775;28;20064;-82
2022/10/23 11:04:16;;;;;;;6.53;5.20;;;16.40;99.90;;;;;;5044293;28;20049;-82
2022/10/23 11:06:45;;;;;;;6.28;4.00;;;16.40;99.90;;;;;;5052541;28;20072;-82
2022/10/23 11:09:20;;;;;;;7.63;5.80;;;16.40;99.90;;;;;;5051974;28;20055;-81
2022/10/23 11:11:46;;;;;;;10.18;5.30;;;16.50;99.90;;;;;;5051942;28;20128;-82
2022/10/23 11:14:33;;;;;;;9.73;4.80;;;16.50;99.90;;;;;;5051755;28;20123;-81
2022/10/23 11:17:20;;;;;;;6.40;3.83;;;16.50;99.90;;;;;;5051991;28;20080;-81
2022/10/23 11:19:54;;;;;;;8.20;3.65;;;16.50;99.90;;;;;;5051719;28;20048;-82
2022/10/23 11:22:31;;;;;;;6.88;4.30;;;16.40;99.90;;;;;;5051583;28;20056;-82
2022/10/23 11:25:02;;;;;;;7.30;3.92;;;16.40;99.90;;;;;;5051493;28;20552;-81
2022/10/23 11:27:46;;;;;;;5.70;4.68;;;16.40;99.90;;;;;;5055294;28;20051;-82
2022/10/23 11:30:17;;;;;;;5.68;4.30;;;16.40;99.90;;;;;;5055575;28;20057;-82
2022/10/23 11:32:55;;;;;;;6.43;3.75;;;16.40;99.90;;;;;;5055584;28;20045;-82
2022/10/23 11:35:47;;;;;;;8.70;4.95;;;16.40;99.90;;;;;;5087514;28;20049;-82
2022/10/23 11:38:17;;;;;;;9.15;4.68;;;16.40;99.90;;;;;;5055260;28;20345;-81
2022/10/23 11:40:49;;;;;;;9.57;4.72;;;16.40;99.90;;;;;;5055385;28;20078;-82
2022/10/23 11:43:30;;;;;;;5.03;3.83;;;16.50;99.90;;;;;;5055227;28;20063;-82
2022/10/23 11:45:57;;;;;;;7.53;3.45;;;16.40;99.90;;;;;;5055038;28;20045;-81
2022/10/23 11:48:36;;;;;;;8.38;4.25;;;16.40;99.90;;;;;;5054877;28;20041;-81
2022/10/23 11:51:03;;;;;;;6.80;4.03;;;16.40;99.90;;;;;;5055203;28;20075;-81
2022/10/23 11:53:31;;;;;;;6.38;3.70;;;16.40;99.90;;;;;;5055164;28;20084;-81
2022/10/23 11:56:13;;;;;;;6.60;3.75;;;16.30;99.90;;;;;;5054653;28;20045;-81
2022/10/23 11:58:43;;;;;;;8.38;3.78;;;16.30;99.90;;;;;;5054654;28;20539;-81
2022/10/23 12:01:33;;;;;;;6.35;3.80;;;16.40;99.90;;;;;;5055176;28;20080;-81
2022/10/23 12:04:13;;;;;;;5.93;3.90;;;16.40;99.90;;;;;;5055253;28;20195;-82
2022/10/23 12:07:00;;;;;;;9.45;4.25;;;16.40;99.90;;;;;;5054569;28;20140;-81
2022/10/23 12:09:45;;;;;;;7.03;3.85;;;16.40;99.90;;;;;;5055032;28;20114;-81
2022/10/23 12:12:10;;;;;;;10.30;3.78;;;16.50;99.90;;;;;;5054978;28;20048;-81
2022/10/23 12:14:36;;;;;;;6.25;3.90;;;16.50;99.90;;;;;;5054907;28;20041;-81
2022/10/23 12:17:17;;;;;;;7.53;3.65;;;16.50;99.90;;;;;;5054578;28;20451;-82
2022/10/23 12:19:48;;;;;;;7.32;3.92;;;16.50;99.90;;;;;;5054754;28;20049;-81
2022/10/23 12:22:15;;;;;;;5.35;3.88;;;16.60;99.90;;;;;;5054643;28;20041;-81
2022/10/23 12:25:03;;;;;;;4.13;3.40;;;16.60;99.90;;;;;;5054460;28;20049;-81
2022/10/23 12:27:31;;;;;;;6.55;3.67;;;16.60;99.90;;;;;;5054539;28;20443;-81
2022/10/23 12:30:18;;;;;;;3.83;3.50;;;16.60;99.90;;;;;;5054482;28;20417;-80
2022/10/23 12:33:02;;;;;;;4.43;3.47;;;16.70;99.90;;;;;;5054313;28;20052;-81
2022/10/23 12:35:47;;;;;;;8.18;3.53;;;16.70;99.90;;;;;;5054381;28;20049;-82
2022/10/23 12:38:20;;;;;;;7.03;3.63;;;16.80;99.90;;;;;;5053517;28;20049;-81
2022/10/23 12:41:11;;;;;;;9.25;3.33;;;16.80;99.90;;;;;;5054755;28;20048;-81
2022/10/23 12:43:40;;;;;;;5.57;3.25;;;16.80;99.90;;;;;;5045219;28;20065;-81
2022/10/23 12:46:29;;;;;;;4.82;3.42;;;16.80;99.90;;;;;;5055004;28;20045;-81
2022/10/23 12:48:55;;;;;;;8.23;3.95;;;16.80;99.90;;;;;;5054677;28;20108;-81
2022/10/23 12:51:24;;;;;;;4.28;3.00;;;16.80;99.90;;;;;;5054384;28;20137;-81
2022/10/23 12:53:50;;;;;;;5.43;3.75;;;16.80;99.90;;;;;;5054377;28;20079;-81
2022/10/23 12:56:16;;;;;;;4.25;3.40;;;16.80;99.90;;;;;;5052897;28;20041;-81
2022/10/23 12:58:59;;;;;;;5.07;2.90;;;16.80;99.90;;;;;;5062428;28;20037;-81
2022/10/23 13:01:28;;;;;;;4.63;3.17;;;16.80;99.90;;;;;;5074447;28;20045;-82